createdAt,value
2017-08-01T00:02:20.579Z,100082
2017-08-01T00:07:23.773Z,100064
2017-08-01T00:12:26.973Z,100044
2017-08-01T00:17:30.916Z,100054
2017-08-01T00:22:34.110Z,100052
2017-08-01T00:27:37.280Z,100044
2017-08-01T00:32:40.480Z,100041
2017-08-01T00:37:43.654Z,100020
2017-08-01T00:42:46.841Z,100028
2017-08-01T00:47:50.412Z,100394
2017-08-01T00:52:53.619Z,100459
2017-08-01T00:57:56.791Z,100418
2017-08-01T01:02:59.977Z,100431
2017-08-01T01:08:03.538Z,100440
2017-08-01T01:13:06.736Z,100531
2017-08-01T01:18:09.929Z,100661
2017-08-01T01:23:13.370Z,100535
2017-08-01T01:28:16.609Z,100428
2017-08-01T01:33:19.784Z,100392
2017-08-01T01:38:22.967Z,100333
2017-08-01T01:43:26.154Z,100290
2017-08-01T01:48:29.353Z,100288
2017-08-01T01:53:32.523Z,100259
2017-08-01T01:58:35.719Z,100260
2017-08-01T02:03:38.890Z,100292
2017-08-01T02:08:42.079Z,100283
2017-08-01T02:13:45.249Z,100319
2017-08-01T02:18:49.199Z,100310
2017-08-01T02:23:52.351Z,100298
2017-08-01T02:28:55.534Z,100292
2017-08-01T02:33:58.876Z,100260
2017-08-01T02:39:02.053Z,100255
2017-08-01T02:44:05.255Z,100270
2017-08-01T02:49:08.414Z,100285
2017-08-01T02:54:12.399Z,100320
2017-08-01T02:59:15.570Z,100346
2017-08-01T03:04:18.744Z,100381
2017-08-01T03:09:21.918Z,100441
2017-08-01T03:14:25.117Z,100457
2017-08-01T03:19:28.276Z,100458
2017-08-01T03:24:32.265Z,100468
2017-08-01T03:29:35.449Z,100441
2017-08-01T03:34:38.638Z,100413
2017-08-01T03:39:41.820Z,100366
2017-08-01T03:44:45.776Z,100357
2017-08-01T03:49:49.075Z,100389
2017-08-01T03:54:52.993Z,100372
2017-08-01T03:59:56.193Z,100367
2017-08-01T04:04:59.406Z,100359
2017-08-01T04:10:02.617Z,100314
2017-08-01T04:15:05.817Z,100307
2017-08-01T04:20:08.995Z,100280
2017-08-01T04:25:12.188Z,100294
2017-08-01T04:30:15.374Z,100294
2017-08-01T04:35:18.583Z,100300
2017-08-01T04:40:21.772Z,100276
2017-08-01T04:45:24.941Z,100257
2017-08-01T04:50:28.881Z,100259
2017-08-01T04:55:32.082Z,100260
2017-08-01T05:00:35.956Z,100207
2017-08-01T05:05:39.214Z,100207
2017-08-01T05:10:43.160Z,100228
2017-08-01T05:15:46.357Z,100245
2017-08-01T05:20:49.552Z,100233
2017-08-01T05:25:52.744Z,100244
2017-08-01T05:30:56.691Z,100240
2017-08-01T05:35:59.900Z,100249
2017-08-01T05:41:03.082Z,100266
2017-08-01T05:46:07.029Z,100288
2017-08-01T05:51:11.177Z,100306
2017-08-01T05:56:14.357Z,100332
2017-08-01T06:01:17.570Z,100331
2017-08-01T06:06:21.502Z,100342
2017-08-01T06:11:24.697Z,100366
2017-08-01T06:16:27.876Z,100379
2017-08-01T06:21:31.837Z,100391
2017-08-01T06:26:35.030Z,100439
2017-08-01T06:31:38.214Z,100442
2017-08-01T06:36:42.161Z,100409
2017-08-01T06:41:45.349Z,100424
2017-08-01T06:46:49.350Z,100414
2017-08-01T06:51:52.537Z,100412
2017-08-01T06:56:55.725Z,100417
2017-08-01T07:01:58.943Z,100425
2017-08-01T07:07:02.123Z,100417
2017-08-01T07:12:05.303Z,100424
2017-08-01T07:17:08.493Z,100442
2017-08-01T07:22:11.707Z,100454
2017-08-01T07:27:14.882Z,100465
2017-08-01T07:32:18.086Z,100440
2017-08-01T07:37:22.349Z,100498
2017-08-01T07:42:25.584Z,100463
2017-08-01T07:47:29.543Z,100486
2017-08-01T07:52:32.856Z,100438
2017-08-01T07:57:36.039Z,100444
2017-08-01T08:02:39.236Z,100451
2017-08-01T08:07:43.222Z,100480
2017-08-01T08:12:46.430Z,100497
2017-08-01T08:17:49.614Z,100517
2017-08-01T08:22:52.819Z,100554
2017-08-01T08:27:56.112Z,100602
2017-08-01T08:32:59.310Z,100650
2017-08-01T08:38:02.473Z,100655
2017-08-01T08:43:05.923Z,100618
2017-08-01T08:48:09.280Z,100591
2017-08-01T08:53:12.488Z,100580
2017-08-01T08:58:15.705Z,100573
2017-08-01T09:03:18.877Z,100563
2017-08-01T09:08:22.063Z,100516
2017-08-01T09:13:25.251Z,100532
2017-08-01T09:18:29.202Z,100505
2017-08-01T09:23:32.411Z,100437
2017-08-01T09:28:36.137Z,100406
2017-08-01T09:33:39.358Z,100432
2017-08-01T09:38:42.590Z,100417
2017-08-01T09:43:45.754Z,100420
2017-08-01T09:48:48.934Z,100432
2017-08-01T09:53:52.142Z,100460
2017-08-01T09:58:55.341Z,100449
2017-08-01T10:03:59.292Z,100429
2017-08-01T10:09:02.485Z,100426
2017-08-01T10:14:05.710Z,100401
2017-08-01T10:19:08.895Z,100414
2017-08-01T10:24:12.234Z,100412
2017-08-01T10:29:15.474Z,100409
2017-08-01T10:34:18.641Z,100428
2017-08-01T10:39:21.884Z,100431
2017-08-01T10:44:25.133Z,100415
2017-08-01T10:49:29.057Z,100418
2017-08-01T10:54:32.382Z,100441
2017-08-01T10:59:35.585Z,100477
2017-08-01T11:04:38.768Z,100482
2017-08-01T11:09:43.178Z,100469
2017-08-01T11:14:46.377Z,100517
2017-08-01T11:19:49.772Z,100503
2017-08-01T11:24:52.961Z,100495
2017-08-01T11:29:56.183Z,100489
2017-08-01T11:34:59.373Z,100514
2017-08-01T11:40:02.566Z,100484
2017-08-01T11:45:05.768Z,100498
2017-08-01T11:50:08.991Z,100484
2017-08-01T11:55:12.194Z,100505
2017-08-01T12:00:15.370Z,100525
2017-08-01T12:05:19.411Z,100534
2017-08-01T12:10:22.609Z,100516
2017-08-01T12:15:26.586Z,100496
2017-08-01T12:20:29.781Z,100499
2017-08-01T12:25:33.199Z,100494
2017-08-01T12:30:36.411Z,100472
2017-08-01T12:35:39.677Z,100467
2017-08-01T12:40:43.799Z,100468
2017-08-01T12:45:47.866Z,100472
2017-08-01T12:50:51.148Z,100517
2017-08-01T12:55:54.357Z,100536
2017-08-01T13:00:57.558Z,100555
2017-08-01T13:06:00.828Z,100559
2017-08-01T13:11:04.254Z,100541
2017-08-01T13:16:08.223Z,100549
2017-08-01T13:21:11.511Z,100567
2017-08-01T13:26:14.887Z,100570
2017-08-01T13:31:18.232Z,100579
2017-08-01T13:36:21.438Z,100594
2017-08-01T13:41:24.632Z,100593
2017-08-01T13:46:28.625Z,100541
2017-08-01T13:51:31.828Z,100551
2017-08-01T13:56:34.986Z,100517
2017-08-01T14:01:38.187Z,100565
2017-08-01T14:06:41.390Z,100539
2017-08-01T14:11:44.590Z,100564
2017-08-01T14:16:48.541Z,100556
2017-08-01T14:21:51.866Z,100525
2017-08-01T14:26:55.056Z,100529
2017-08-01T14:31:58.242Z,100486
2017-08-01T14:37:02.208Z,100467
2017-08-01T14:42:05.716Z,100452
2017-08-01T14:47:08.930Z,100421
2017-08-01T14:52:12.337Z,100369
2017-08-01T14:57:15.560Z,100335
2017-08-01T15:02:19.090Z,100335
2017-08-01T15:07:23.006Z,100347
2017-08-01T15:12:27.001Z,100371
2017-08-01T15:17:30.349Z,100350
2017-08-01T15:22:33.616Z,100349
2017-08-01T15:27:36.842Z,100377
2017-08-01T15:32:40.027Z,100402
2017-08-01T15:37:43.299Z,100409
2017-08-01T15:42:47.347Z,100361
2017-08-01T15:47:50.545Z,100380
2017-08-01T15:52:54.745Z,100382
2017-08-01T15:57:58.261Z,100413
2017-08-01T16:03:01.477Z,100438
2017-08-01T16:08:04.653Z,100420
2017-08-01T16:13:08.002Z,100390
2017-08-01T16:18:12.075Z,100331
2017-08-01T16:23:15.281Z,100298
2017-08-01T16:28:18.488Z,100315
2017-08-01T16:33:21.692Z,100355
2017-08-01T16:38:25.024Z,100384
2017-08-01T16:43:28.214Z,100381
2017-08-01T16:48:31.555Z,100397
2017-08-01T16:53:34.766Z,100422
2017-08-01T16:58:37.999Z,100431
2017-08-01T17:03:41.985Z,100433
2017-08-01T17:08:45.184Z,100426
2017-08-01T17:13:48.371Z,100444
2017-08-01T17:18:51.569Z,100431
2017-08-01T17:23:55.783Z,100445
2017-08-01T17:28:59.775Z,100436
2017-08-01T17:34:02.909Z,100446
2017-08-01T17:39:06.096Z,100437
2017-08-01T17:44:10.108Z,100453
2017-08-01T17:49:13.312Z,100458
2017-08-01T17:54:16.448Z,100446
2017-08-01T17:59:19.654Z,100440
2017-08-01T18:04:23.587Z,100439
2017-08-01T18:09:26.995Z,100449
2017-08-01T18:14:31.412Z,100456
2017-08-01T18:19:34.948Z,100460
2017-08-01T18:24:38.313Z,100454
2017-08-01T18:29:41.538Z,100451
2017-08-01T18:34:44.977Z,100452
2017-08-01T18:39:49.117Z,100452
2017-08-01T18:44:52.575Z,100470
2017-08-01T18:49:55.827Z,100467
2017-08-01T18:54:59.790Z,100496
2017-08-01T19:00:03.049Z,100507
2017-08-01T19:05:07.061Z,100487
2017-08-01T19:10:10.263Z,100497
2017-08-01T19:15:14.838Z,100506
2017-08-01T19:20:18.800Z,100497
2017-08-01T19:25:22.047Z,100516
2017-08-01T19:30:25.992Z,100517
2017-08-01T19:35:29.206Z,100534
2017-08-01T19:40:32.457Z,100545
2017-08-01T19:45:35.730Z,100533
2017-08-01T19:50:38.915Z,100515
2017-08-01T19:55:42.881Z,100505
2017-08-01T20:00:46.077Z,100491
2017-08-01T20:05:49.279Z,100505
2017-08-01T20:10:52.560Z,100478
2017-08-01T20:15:55.979Z,100493
2017-08-01T20:20:59.190Z,100536
2017-08-01T20:26:02.401Z,100571
2017-08-01T20:31:06.416Z,100564
2017-08-01T20:36:09.735Z,100560
2017-08-01T20:41:12.953Z,100556
2017-08-01T20:46:16.151Z,100561
2017-08-01T20:51:19.411Z,100574
2017-08-01T20:56:22.798Z,100588
2017-08-01T21:01:25.996Z,100591
2017-08-01T21:06:29.284Z,100595
2017-08-01T21:11:32.514Z,100604
2017-08-01T21:16:35.721Z,100595
2017-08-01T21:21:39.044Z,100592
2017-08-01T21:26:42.580Z,100601
2017-08-01T21:31:45.837Z,100593
2017-08-01T21:36:49.076Z,100583
2017-08-01T21:41:52.540Z,100594
2017-08-01T21:46:57.052Z,100588
2017-08-01T21:52:01.144Z,100592
2017-08-01T21:57:04.335Z,100611
2017-08-01T22:02:07.538Z,100610
2017-08-01T22:07:11.373Z,100617
2017-08-01T22:12:14.554Z,100617
2017-08-01T22:17:18.341Z,100631
2017-08-01T22:22:21.723Z,100635
2017-08-01T22:27:24.933Z,100636
2017-08-01T22:32:28.142Z,100638
2017-08-01T22:37:31.320Z,100652
2017-08-01T22:42:34.509Z,100652
2017-08-01T22:47:37.709Z,100646
2017-08-01T22:52:41.666Z,100655
2017-08-01T22:57:44.869Z,100659
2017-08-01T23:02:48.045Z,100650
2017-08-01T23:07:51.952Z,100650
2017-08-01T23:12:55.903Z,100639
2017-08-01T23:17:59.077Z,100631
2017-08-01T23:23:03.038Z,100620
2017-08-01T23:28:06.278Z,100619
2017-08-01T23:33:09.446Z,100613
2017-08-01T23:38:12.675Z,100609
2017-08-01T23:43:15.882Z,100605
2017-08-01T23:48:19.212Z,100592
2017-08-01T23:53:22.613Z,100602
2017-08-01T23:58:25.807Z,100605
